sensor_id;sensor_type;location;lat;lon;timestamp;pressure;altitude;pressure_sealevel;temperature;humidity
34566;BME280;20803;42.676;26.348;2023-10-08T00:00:24;98874.19;;;18.20;41.10
34566;BME280;20803;42.676;26.348;2023-10-08T00:03:11;98866.91;;;18.32;40.99
34566;BME280;20803;42.676;26.348;2023-10-08T00:05:38;98866.66;;;18.39;41.03
34566;BME280;20803;42.676;26.348;2023-10-08T00:08:04;98868.91;;;18.53;40.89
34566;BME280;20803;42.676;26.348;2023-10-08T00:10:37;98869.28;;;18.64;40.81
34566;BME280;20803;42.676;26.348;2023-10-08T00:13:05;98866.19;;;18.72;40.66
34566;BME280;20803;42.676;26.348;2023-10-08T00:15:34;98858.66;;;18.69;40.71
34566;BME280;20803;42.676;26.348;2023-10-08T00:18:01;98849.66;;;18.52;41.04
34566;BME280;20803;42.676;26.348;2023-10-08T00:20:27;98840.81;;;18.62;40.94
34566;BME280;20803;42.676;26.348;2023-10-08T00:23:01;98841.59;;;18.63;40.96
34566;BME280;20803;42.676;26.348;2023-10-08T00:25:28;98846.59;;;18.59;40.76
34566;BME280;20803;42.676;26.348;2023-10-08T00:27:56;98836.91;;;18.60;40.59
34566;BME280;20803;42.676;26.348;2023-10-08T00:30:21;98834.13;;;18.69;40.38
34566;BME280;20803;42.676;26.348;2023-10-08T00:32:47;98837.44;;;18.77;40.29
34566;BME280;20803;42.676;26.348;2023-10-08T00:35:12;98838.16;;;18.68;40.37
34566;BME280;20803;42.676;26.348;2023-10-08T00:37:46;98836.78;;;18.73;40.19
34566;BME280;20803;42.676;26.348;2023-10-08T00:40:13;98837.59;;;18.82;40.23
34566;BME280;20803;42.676;26.348;2023-10-08T00:42:44;98833.16;;;18.63;40.64
34566;BME280;20803;42.676;26.348;2023-10-08T00:45:11;98841.34;;;18.48;41.03
34566;BME280;20803;42.676;26.348;2023-10-08T00:47:40;98843.19;;;18.42;41.01
34566;BME280;20803;42.676;26.348;2023-10-08T00:50:12;98837.78;;;18.17;41.66
34566;BME280;20803;42.676;26.348;2023-10-08T00:52:47;98840.53;;;18.08;41.96
34566;BME280;20803;42.676;26.348;2023-10-08T00:55:26;98837.09;;;18.04;42.18
34566;BME280;20803;42.676;26.348;2023-10-08T00:57:58;98829.44;;;18.04;42.19
34566;BME280;20803;42.676;26.348;2023-10-08T01:00:25;98834.56;;;18.06;42.19
34566;BME280;20803;42.676;26.348;2023-10-08T01:02:58;98826.72;;;18.22;42.03
34566;BME280;20803;42.676;26.348;2023-10-08T01:05:27;98822.22;;;18.34;41.70
34566;BME280;20803;42.676;26.348;2023-10-08T01:08:12;98815.84;;;18.43;41.83
34566;BME280;20803;42.676;26.348;2023-10-08T01:10:43;98817.59;;;18.49;41.45
34566;BME280;20803;42.676;26.348;2023-10-08T01:13:09;98812.28;;;18.51;41.72
34566;BME280;20803;42.676;26.348;2023-10-08T01:15:41;98804.19;;;18.53;41.59
34566;BME280;20803;42.676;26.348;2023-10-08T01:18:07;98802.28;;;18.50;41.53
34566;BME280;20803;42.676;26.348;2023-10-08T01:20:39;98799.78;;;18.52;41.84
34566;BME280;20803;42.676;26.348;2023-10-08T01:23:13;98796.72;;;18.59;41.30
34566;BME280;20803;42.676;26.348;2023-10-08T01:25:42;98788.53;;;18.52;41.37
34566;BME280;20803;42.676;26.348;2023-10-08T01:28:09;98794.28;;;18.49;41.67
34566;BME280;20803;42.676;26.348;2023-10-08T01:30:43;98802.88;;;18.45;41.65
34566;BME280;20803;42.676;26.348;2023-10-08T01:33:12;98802.53;;;18.34;41.96
34566;BME280;20803;42.676;26.348;2023-10-08T01:35:39;98796.75;;;18.38;42.26
34566;BME280;20803;42.676;26.348;2023-10-08T01:38:05;98786.16;;;18.42;41.76
34566;BME280;20803;42.676;26.348;2023-10-08T01:40:32;98790.63;;;18.30;42.25
34566;BME280;20803;42.676;26.348;2023-10-08T01:42:57;98797.03;;;18.31;42.14
34566;BME280;20803;42.676;26.348;2023-10-08T01:45:26;98789.06;;;18.29;42.30
34566;BME280;20803;42.676;26.348;2023-10-08T01:47:52;98785.47;;;18.29;42.30
34566;BME280;20803;42.676;26.348;2023-10-08T01:50:20;98792.69;;;18.30;42.22
34566;BME280;20803;42.676;26.348;2023-10-08T01:52:55;98792.97;;;18.32;42.28
34566;BME280;20803;42.676;26.348;2023-10-08T01:55:20;98781.56;;;18.26;42.57
34566;BME280;20803;42.676;26.348;2023-10-08T01:57:49;98778.56;;;18.20;42.56
34566;BME280;20803;42.676;26.348;2023-10-08T02:00:15;98778.88;;;18.22;42.59
34566;BME280;20803;42.676;26.348;2023-10-08T02:02:51;98780.91;;;18.22;42.38
34566;BME280;20803;42.676;26.348;2023-10-08T02:05:17;98784.19;;;18.20;42.54
34566;BME280;20803;42.676;26.348;2023-10-08T02:07:44;98790.16;;;18.22;42.62
34566;BME280;20803;42.676;26.348;2023-10-08T02:10:10;98790.16;;;18.22;42.75
34566;BME280;20803;42.676;26.348;2023-10-08T02:12:42;98785.31;;;18.23;42.73
34566;BME280;20803;42.676;26.348;2023-10-08T02:15:08;98771.88;;;18.27;42.80
34566;BME280;20803;42.676;26.348;2023-10-08T02:17:36;98774.00;;;18.14;42.47
34566;BME280;20803;42.676;26.348;2023-10-08T02:20:02;98755.88;;;18.15;42.11
34566;BME280;20803;42.676;26.348;2023-10-08T02:22:31;98759.03;;;18.17;41.56
34566;BME280;20803;42.676;26.348;2023-10-08T02:24:58;98756.16;;;18.08;41.42
34566;BME280;20803;42.676;26.348;2023-10-08T02:27:27;98755.78;;;18.28;41.25
34566;BME280;20803;42.676;26.348;2023-10-08T02:29:53;98750.47;;;18.30;40.94
34566;BME280;20803;42.676;26.348;2023-10-08T02:32:19;98754.13;;;18.08;40.90
34566;BME280;20803;42.676;26.348;2023-10-08T02:34:48;98754.69;;;17.94;41.43
34566;BME280;20803;42.676;26.348;2023-10-08T02:37:13;98745.16;;;17.92;41.39
34566;BME280;20803;42.676;26.348;2023-10-08T02:39:40;98747.13;;;17.82;41.72
34566;BME280;20803;42.676;26.348;2023-10-08T02:42:06;98745.34;;;17.97;41.50
34566;BME280;20803;42.676;26.348;2023-10-08T02:44:36;98744.59;;;17.75;41.63
34566;BME280;20803;42.676;26.348;2023-10-08T02:47:08;98743.94;;;17.71;41.64
34566;BME280;20803;42.676;26.348;2023-10-08T02:49:34;98746.34;;;17.81;41.19
34566;BME280;20803;42.676;26.348;2023-10-08T02:52:02;98750.69;;;17.73;41.98
34566;BME280;20803;42.676;26.348;2023-10-08T02:54:29;98742.84;;;17.47;43.25
34566;BME280;20803;42.676;26.348;2023-10-08T02:57:01;98748.91;;;17.23;44.07
34566;BME280;20803;42.676;26.348;2023-10-08T02:59:30;98739.56;;;17.04;44.61
34566;BME280;20803;42.676;26.348;2023-10-08T03:02:11;98738.78;;;17.04;44.95
34566;BME280;20803;42.676;26.348;2023-10-08T03:04:47;98739.94;;;16.94;44.98
34566;BME280;20803;42.676;26.348;2023-10-08T03:07:17;98743.53;;;16.94;44.99
34566;BME280;20803;42.676;26.348;2023-10-08T03:09:57;98736.16;;;16.88;44.95
34566;BME280;20803;42.676;26.348;2023-10-08T03:12:34;98742.94;;;16.99;45.09
34566;BME280;20803;42.676;26.348;2023-10-08T03:15:02;98741.72;;;17.00;44.94
34566;BME280;20803;42.676;26.348;2023-10-08T03:17:48;98738.53;;;17.11;44.93
34566;BME280;20803;42.676;26.348;2023-10-08T03:20:15;98729.75;;;17.09;45.03
34566;BME280;20803;42.676;26.348;2023-10-08T03:22:56;98738.66;;;17.08;45.18
34566;BME280;20803;42.676;26.348;2023-10-08T03:25:24;98729.94;;;17.15;45.03
34566;BME280;20803;42.676;26.348;2023-10-08T03:27:51;98731.66;;;17.12;45.25
34566;BME280;20803;42.676;26.348;2023-10-08T03:30:19;98732.31;;;17.16;45.22
34566;BME280;20803;42.676;26.348;2023-10-08T03:32:45;98725.72;;;17.10;45.20
34566;BME280;20803;42.676;26.348;2023-10-08T03:35:16;98741.31;;;17.11;45.20
34566;BME280;20803;42.676;26.348;2023-10-08T03:37:42;98717.09;;;17.04;45.46
34566;BME280;20803;42.676;26.348;2023-10-08T03:40:12;98737.25;;;16.90;45.73
34566;BME280;20803;42.676;26.348;2023-10-08T03:42:55;98726.16;;;16.87;45.74
34566;BME280;20803;42.676;26.348;2023-10-08T03:45:21;98737.25;;;16.90;45.79
34566;BME280;20803;42.676;26.348;2023-10-08T03:48:06;98737.97;;;16.82;45.91
34566;BME280;20803;42.676;26.348;2023-10-08T03:50:33;98739.06;;;16.84;45.82
34566;BME280;20803;42.676;26.348;2023-10-08T03:53:07;98729.34;;;16.76;45.99
34566;BME280;20803;42.676;26.348;2023-10-08T03:55:40;98724.81;;;16.79;46.37
34566;BME280;20803;42.676;26.348;2023-10-08T03:58:09;98720.44;;;16.78;46.21
34566;BME280;20803;42.676;26.348;2023-10-08T04:00:53;98715.75;;;16.75;46.79
34566;BME280;20803;42.676;26.348;2023-10-08T04:03:36;98712.50;;;16.76;46.69
34566;BME280;20803;42.676;26.348;2023-10-08T04:06:19;98715.41;;;16.73;46.73
34566;BME280;20803;42.676;26.348;2023-10-08T04:08:48;98717.38;;;16.63;46.83
34566;BME280;20803;42.676;26.348;2023-10-08T04:11:32;98713.31;;;16.64;47.01
34566;BME280;20803;42.676;26.348;2023-10-08T04:14:04;98710.53;;;16.51;47.18
34566;BME280;20803;42.676;26.348;2023-10-08T04:16:31;98720.16;;;16.50;47.16
34566;BME280;20803;42.676;26.348;2023-10-08T04:19:02;98723.88;;;16.35;47.64
34566;BME280;20803;42.676;26.348;2023-10-08T04:21:28;98720.63;;;16.36;47.70
34566;BME280;20803;42.676;26.348;2023-10-08T04:23:55;98718.75;;;16.20;48.02
34566;BME280;20803;42.676;26.348;2023-10-08T04:26:24;98715.59;;;16.18;48.28
34566;BME280;20803;42.676;26.348;2023-10-08T04:28:56;98717.75;;;16.14;48.67
34566;BME280;20803;42.676;26.348;2023-10-08T04:31:28;98715.75;;;16.15;48.57
34566;BME280;20803;42.676;26.348;2023-10-08T04:34:04;98717.75;;;16.14;49.13
34566;BME280;20803;42.676;26.348;2023-10-08T04:36:43;98715.31;;;16.04;49.30
34566;BME280;20803;42.676;26.348;2023-10-08T04:39:16;98708.56;;;16.14;49.26
34566;BME280;20803;42.676;26.348;2023-10-08T04:41:47;98719.06;;;16.22;49.23
34566;BME280;20803;42.676;26.348;2023-10-08T04:44:13;98718.31;;;16.22;49.04
34566;BME280;20803;42.676;26.348;2023-10-08T04:46:42;98725.16;;;16.21;49.52
34566;BME280;20803;42.676;26.348;2023-10-08T04:49:11;98719.63;;;16.30;49.53
34566;BME280;20803;42.676;26.348;2023-10-08T04:51:51;98726.13;;;16.40;49.61
34566;BME280;20803;42.676;26.348;2023-10-08T04:54:20;98724.28;;;16.71;48.97
34566;BME280;20803;42.676;26.348;2023-10-08T04:56:45;98708.84;;;16.88;48.44
34566;BME280;20803;42.676;26.348;2023-10-08T04:59:14;98720.75;;;17.14;48.13
34566;BME280;20803;42.676;26.348;2023-10-08T05:01:39;98700.78;;;17.12;47.62
34566;BME280;20803;42.676;26.348;2023-10-08T05:04:28;98712.22;;;17.18;48.01
34566;BME280;20803;42.676;26.348;2023-10-08T05:06:58;98721.91;;;17.48;47.57
34566;BME280;20803;42.676;26.348;2023-10-08T05:09:42;98720.25;;;17.81;47.21
34566;BME280;20803;42.676;26.348;2023-10-08T05:12:17;98710.31;;;17.89;46.47
34566;BME280;20803;42.676;26.348;2023-10-08T05:15:00;98713.34;;;18.13;46.51
34566;BME280;20803;42.676;26.348;2023-10-08T05:17:41;98720.78;;;18.38;45.82
34566;BME280;20803;42.676;26.348;2023-10-08T05:20:21;98720.09;;;18.64;45.73
34566;BME280;20803;42.676;26.348;2023-10-08T05:23:12;98715.44;;;18.89;45.16
34566;BME280;20803;42.676;26.348;2023-10-08T05:25:55;98725.59;;;19.14;45.00
34566;BME280;20803;42.676;26.348;2023-10-08T05:28:37;98707.88;;;19.40;44.50
34566;BME280;20803;42.676;26.348;2023-10-08T05:31:22;98715.06;;;19.41;44.10
34566;BME280;20803;42.676;26.348;2023-10-08T05:34:08;98710.50;;;19.71;43.69
34566;BME280;20803;42.676;26.348;2023-10-08T05:36:43;98725.28;;;19.99;43.25
34566;BME280;20803;42.676;26.348;2023-10-08T05:39:27;98717.47;;;20.27;43.09
34566;BME280;20803;42.676;26.348;2023-10-08T05:42:08;98727.75;;;20.48;42.27
34566;BME280;20803;42.676;26.348;2023-10-08T05:44:57;98731.09;;;20.61;42.61
34566;BME280;20803;42.676;26.348;2023-10-08T05:47:34;98723.25;;;20.89;42.03
34566;BME280;20803;42.676;26.348;2023-10-08T05:50:01;98719.50;;;21.07;41.59
34566;BME280;20803;42.676;26.348;2023-10-08T05:52:45;98728.81;;;21.22;41.31
34566;BME280;20803;42.676;26.348;2023-10-08T05:55:33;98724.16;;;21.34;40.86
34566;BME280;20803;42.676;26.348;2023-10-08T05:58:04;98725.03;;;21.01;41.42
34566;BME280;20803;42.676;26.348;2023-10-08T06:00:48;98717.75;;;21.10;41.28
34566;BME280;20803;42.676;26.348;2023-10-08T06:03:33;98721.00;;;21.17;41.18
34566;BME280;20803;42.676;26.348;2023-10-08T06:06:06;98719.66;;;21.27;41.01
34566;BME280;20803;42.676;26.348;2023-10-08T06:08:38;98714.53;;;21.40;40.05
34566;BME280;20803;42.676;26.348;2023-10-08T06:11:16;98719.19;;;21.43;40.29
34566;BME280;20803;42.676;26.348;2023-10-08T06:14:00;98718.78;;;21.65;39.93
34566;BME280;20803;42.676;26.348;2023-10-08T06:16:26;98707.38;;;21.16;40.15
34566;BME280;20803;42.676;26.348;2023-10-08T06:19:07;98712.06;;;20.71;41.10
34566;BME280;20803;42.676;26.348;2023-10-08T06:21:35;98712.50;;;20.79;41.41
34566;BME280;20803;42.676;26.348;2023-10-08T06:24:02;98713.03;;;21.16;40.98
34566;BME280;20803;42.676;26.348;2023-10-08T06:26:34;98714.09;;;21.48;40.21
34566;BME280;20803;42.676;26.348;2023-10-08T06:29:03;98723.69;;;21.50;39.93
34566;BME280;20803;42.676;26.348;2023-10-08T06:31:43;98710.09;;;21.83;39.47
34566;BME280;20803;42.676;26.348;2023-10-08T06:34:16;98716.84;;;21.86;39.22
34566;BME280;20803;42.676;26.348;2023-10-08T06:36:41;98716.94;;;21.92;39.46
34566;BME280;20803;42.676;26.348;2023-10-08T06:39:07;98713.31;;;21.91;39.48
34566;BME280;20803;42.676;26.348;2023-10-08T06:41:37;98704.66;;;21.95;39.02
34566;BME280;20803;42.676;26.348;2023-10-08T06:44:02;98706.59;;;22.03;39.36
34566;BME280;20803;42.676;26.348;2023-10-08T06:46:28;98707.38;;;22.04;38.92
34566;BME280;20803;42.676;26.348;2023-10-08T06:49:07;98708.56;;;21.97;38.91
34566;BME280;20803;42.676;26.348;2023-10-08T06:51:39;98705.03;;;22.02;38.49
34566;BME280;20803;42.676;26.348;2023-10-08T06:54:07;98698.41;;;22.05;38.01
34566;BME280;20803;42.676;26.348;2023-10-08T06:56:36;98706.88;;;22.20;38.23
34566;BME280;20803;42.676;26.348;2023-10-08T06:59:01;98710.38;;;22.30;38.13
34566;BME280;20803;42.676;26.348;2023-10-08T07:01:28;98701.25;;;22.40;38.39
34566;BME280;20803;42.676;26.348;2023-10-08T07:04:04;98711.38;;;22.47;38.35
34566;BME280;20803;42.676;26.348;2023-10-08T07:06:32;98701.75;;;22.59;38.30
34566;BME280;20803;42.676;26.348;2023-10-08T07:09:00;98695.47;;;22.70;38.20
34566;BME280;20803;42.676;26.348;2023-10-08T07:11:30;98688.34;;;22.74;38.06
34566;BME280;20803;42.676;26.348;2023-10-08T07:14:00;98689.75;;;22.84;37.89
34566;BME280;20803;42.676;26.348;2023-10-08T07:16:26;98683.97;;;22.73;37.61
34566;BME280;20803;42.676;26.348;2023-10-08T07:18:53;98684.91;;;22.50;38.16
34566;BME280;20803;42.676;26.348;2023-10-08T07:21:23;98691.78;;;22.63;37.42
34566;BME280;20803;42.676;26.348;2023-10-08T07:23:57;98675.91;;;22.72;37.16
34566;BME280;20803;42.676;26.348;2023-10-08T07:26:28;98682.06;;;22.70;37.40
34566;BME280;20803;42.676;26.348;2023-10-08T07:29:05;98681.22;;;22.64;37.41
34566;BME280;20803;42.676;26.348;2023-10-08T07:31:37;98681.38;;;22.55;37.77
34566;BME280;20803;42.676;26.348;2023-10-08T07:34:06;98676.06;;;22.62;38.03
34566;BME280;20803;42.676;26.348;2023-10-08T07:36:43;98670.47;;;22.48;37.84
34566;BME280;20803;42.676;26.348;2023-10-08T07:39:09;98666.28;;;22.43;38.24
34566;BME280;20803;42.676;26.348;2023-10-08T07:41:49;98670.38;;;22.42;37.89
34566;BME280;20803;42.676;26.348;2023-10-08T07:44:15;98668.09;;;22.26;38.02
34566;BME280;20803;42.676;26.348;2023-10-08T07:46:40;98660.91;;;22.10;38.27
34566;BME280;20803;42.676;26.348;2023-10-08T07:49:06;98669.41;;;22.10;38.59
34566;BME280;20803;42.676;26.348;2023-10-08T07:51:31;98658.84;;;22.25;38.30
34566;BME280;20803;42.676;26.348;2023-10-08T07:53:57;98660.19;;;22.30;38.17
34566;BME280;20803;42.676;26.348;2023-10-08T07:56:23;98660.75;;;22.34;38.15
34566;BME280;20803;42.676;26.348;2023-10-08T07:58:49;98661.53;;;22.35;38.56
34566;BME280;20803;42.676;26.348;2023-10-08T08:01:15;98651.75;;;22.36;38.72
34566;BME280;20803;42.676;26.348;2023-10-08T08:03:41;98653.72;;;22.30;39.36
34566;BME280;20803;42.676;26.348;2023-10-08T08:06:07;98653.19;;;22.25;39.60
34566;BME280;20803;42.676;26.348;2023-10-08T08:08:35;98648.56;;;22.28;39.44
34566;BME280;20803;42.676;26.348;2023-10-08T08:11:07;98653.81;;;22.35;39.44
34566;BME280;20803;42.676;26.348;2023-10-08T08:13:42;98646.03;;;22.30;39.51
34566;BME280;20803;42.676;26.348;2023-10-08T08:16:10;98639.66;;;22.35;39.25
34566;BME280;20803;42.676;26.348;2023-10-08T08:19:00;98632.22;;;22.58;38.39
34566;BME280;20803;42.676;26.348;2023-10-08T08:21:25;98633.16;;;22.49;38.60
34566;BME280;20803;42.676;26.348;2023-10-08T08:23:51;98623.00;;;22.63;38.30
34566;BME280;20803;42.676;26.348;2023-10-08T08:26:23;98629.25;;;22.67;38.41
34566;BME280;20803;42.676;26.348;2023-10-08T08:29:01;98617.34;;;22.83;38.07
34566;BME280;20803;42.676;26.348;2023-10-08T08:31:30;98612.44;;;23.04;37.02
34566;BME280;20803;42.676;26.348;2023-10-08T08:34:01;98610.28;;;23.25;36.76
34566;BME280;20803;42.676;26.348;2023-10-08T08:36:45;98619.16;;;23.32;37.09
34566;BME280;20803;42.676;26.348;2023-10-08T08:39:12;98600.16;;;23.44;37.26
34566;BME280;20803;42.676;26.348;2023-10-08T08:41:58;98593.63;;;23.58;36.47
34566;BME280;20803;42.676;26.348;2023-10-08T08:44:28;98596.78;;;23.66;36.63
34566;BME280;20803;42.676;26.348;2023-10-08T08:47:00;98604.09;;;23.78;36.12
34566;BME280;20803;42.676;26.348;2023-10-08T08:49:32;98586.31;;;23.83;36.26
34566;BME280;20803;42.676;26.348;2023-10-08T08:52:02;98587.13;;;23.89;36.32
34566;BME280;20803;42.676;26.348;2023-10-08T08:54:29;98583.28;;;23.98;35.94
34566;BME280;20803;42.676;26.348;2023-10-08T08:56:59;98577.41;;;24.07;35.45
34566;BME280;20803;42.676;26.348;2023-10-08T08:59:29;98578.72;;;24.11;35.04
34566;BME280;20803;42.676;26.348;2023-10-08T09:01:57;98564.91;;;24.30;34.28
34566;BME280;20803;42.676;26.348;2023-10-08T09:04:32;98573.00;;;24.48;33.91
34566;BME280;20803;42.676;26.348;2023-10-08T09:07:01;98562.41;;;24.54;34.13
34566;BME280;20803;42.676;26.348;2023-10-08T09:09:34;98549.28;;;24.57;33.91
34566;BME280;20803;42.676;26.348;2023-10-08T09:12:00;98537.19;;;24.84;33.60
34566;BME280;20803;42.676;26.348;2023-10-08T09:14:27;98536.94;;;24.88;34.04
34566;BME280;20803;42.676;26.348;2023-10-08T09:16:57;98529.19;;;24.88;33.45
34566;BME280;20803;42.676;26.348;2023-10-08T09:19:25;98520.19;;;25.07;32.58
34566;BME280;20803;42.676;26.348;2023-10-08T09:24:30;98518.38;;;25.37;32.00
34566;BME280;20803;42.676;26.348;2023-10-08T09:26:55;98512.16;;;25.61;31.76
34566;BME280;20803;42.676;26.348;2023-10-08T09:29:24;98521.97;;;25.76;31.63
34566;BME280;20803;42.676;26.348;2023-10-08T09:31:55;98515.72;;;25.89;31.91
34566;BME280;20803;42.676;26.348;2023-10-08T09:34:25;98508.69;;;26.01;30.10
34566;BME280;20803;42.676;26.348;2023-10-08T09:36:52;98508.41;;;26.10;31.44
34566;BME280;20803;42.676;26.348;2023-10-08T09:39:19;98506.03;;;26.25;31.41
34566;BME280;20803;42.676;26.348;2023-10-08T09:41:50;98497.88;;;26.52;29.74
34566;BME280;20803;42.676;26.348;2023-10-08T09:44:18;98495.41;;;26.73;28.38
34566;BME280;20803;42.676;26.348;2023-10-08T09:46:48;98481.34;;;26.80;28.22
34566;BME280;20803;42.676;26.348;2023-10-08T09:49:21;98490.13;;;26.88;28.01
34566;BME280;20803;42.676;26.348;2023-10-08T09:51:50;98492.09;;;27.04;27.90
34566;BME280;20803;42.676;26.348;2023-10-08T09:54:20;98479.91;;;27.03;28.08
34566;BME280;20803;42.676;26.348;2023-10-08T09:56:48;98472.84;;;27.10;27.98
34566;BME280;20803;42.676;26.348;2023-10-08T09:59:14;98462.94;;;27.17;27.63
34566;BME280;20803;42.676;26.348;2023-10-08T10:01:43;98474.66;;;27.13;27.36
34566;BME280;20803;42.676;26.348;2023-10-08T10:04:10;98461.06;;;27.25;27.68
34566;BME280;20803;42.676;26.348;2023-10-08T10:06:36;98451.59;;;27.35;27.19
34566;BME280;20803;42.676;26.348;2023-10-08T10:09:02;98450.00;;;27.40;27.44
34566;BME280;20803;42.676;26.348;2023-10-08T10:11:33;98453.09;;;27.42;26.89
34566;BME280;20803;42.676;26.348;2023-10-08T10:14:00;98457.19;;;27.52;27.40
34566;BME280;20803;42.676;26.348;2023-10-08T10:16:25;98455.16;;;27.71;27.13
34566;BME280;20803;42.676;26.348;2023-10-08T10:18:55;98451.34;;;27.63;26.82
34566;BME280;20803;42.676;26.348;2023-10-08T10:21:26;98432.06;;;27.69;27.23
34566;BME280;20803;42.676;26.348;2023-10-08T10:23:53;98432.72;;;27.81;27.26
34566;BME280;20803;42.676;26.348;2023-10-08T10:26:35;98433.66;;;27.89;27.24
34566;BME280;20803;42.676;26.348;2023-10-08T10:31:40;98425.34;;;27.42;27.09
34566;BME280;20803;42.676;26.348;2023-10-08T10:34:15;98421.19;;;27.43;27.11
34566;BME280;20803;42.676;26.348;2023-10-08T10:36:45;98421.03;;;27.60;26.96
34566;BME280;20803;42.676;26.348;2023-10-08T10:39:16;98412.84;;;27.70;26.97
34566;BME280;20803;42.676;26.348;2023-10-08T10:41:45;98408.00;;;27.83;26.71
34566;BME280;20803;42.676;26.348;2023-10-08T10:44:12;98407.72;;;27.87;27.10
34566;BME280;20803;42.676;26.348;2023-10-08T10:46:40;98406.81;;;27.98;27.19
34566;BME280;20803;42.676;26.348;2023-10-08T10:49:07;98410.81;;;28.08;27.34
34566;BME280;20803;42.676;26.348;2023-10-08T10:51:45;98403.03;;;28.27;26.98
34566;BME280;20803;42.676;26.348;2023-10-08T10:54:12;98391.69;;;28.40;26.84
34566;BME280;20803;42.676;26.348;2023-10-08T10:56:46;98387.00;;;28.56;26.65
34566;BME280;20803;42.676;26.348;2023-10-08T10:59:13;98398.06;;;28.65;26.19
34566;BME280;20803;42.676;26.348;2023-10-08T11:01:48;98388.31;;;28.74;26.36
34566;BME280;20803;42.676;26.348;2023-10-08T11:04:18;98388.22;;;28.79;26.17
34566;BME280;20803;42.676;26.348;2023-10-08T11:06:47;98381.66;;;28.84;26.29
34566;BME280;20803;42.676;26.348;2023-10-08T11:09:13;98372.47;;;28.73;26.02
34566;BME280;20803;42.676;26.348;2023-10-08T11:11:48;98381.28;;;28.56;26.53
34566;BME280;20803;42.676;26.348;2023-10-08T11:14:20;98384.84;;;28.62;26.56
34566;BME280;20803;42.676;26.348;2023-10-08T11:16:47;98384.84;;;28.62;26.69
34566;BME280;20803;42.676;26.348;2023-10-08T11:19:13;98379.03;;;28.67;27.11
34566;BME280;20803;42.676;26.348;2023-10-08T11:21:50;98391.94;;;28.74;27.26
34566;BME280;20803;42.676;26.348;2023-10-08T11:24:29;98384.97;;;28.70;27.41
34566;BME280;20803;42.676;26.348;2023-10-08T11:27:01;98389.47;;;28.65;27.29
34566;BME280;20803;42.676;26.348;2023-10-08T11:29:41;98378.25;;;28.67;27.42
34566;BME280;20803;42.676;26.348;2023-10-08T11:32:07;98359.53;;;28.85;27.62
34566;BME280;20803;42.676;26.348;2023-10-08T11:34:38;98362.50;;;28.92;27.62
34566;BME280;20803;42.676;26.348;2023-10-08T11:37:07;98367.88;;;28.83;27.23
34566;BME280;20803;42.676;26.348;2023-10-08T11:39:48;98362.50;;;28.92;27.26
34566;BME280;20803;42.676;26.348;2023-10-08T11:42:14;98353.28;;;28.99;26.74
34566;BME280;20803;42.676;26.348;2023-10-08T11:44:58;98351.97;;;29.00;27.46
34566;BME280;20803;42.676;26.348;2023-10-08T11:47:48;98347.91;;;29.09;27.43
34566;BME280;20803;42.676;26.348;2023-10-08T11:50:17;98347.25;;;29.16;27.08
34566;BME280;20803;42.676;26.348;2023-10-08T11:52:47;98343.84;;;29.31;27.73
34566;BME280;20803;42.676;26.348;2023-10-08T11:55:12;98346.72;;;29.31;27.55
34566;BME280;20803;42.676;26.348;2023-10-08T11:57:50;98339.13;;;29.47;27.48
34566;BME280;20803;42.676;26.348;2023-10-08T12:00:18;98329.75;;;29.46;27.25
34566;BME280;20803;42.676;26.348;2023-10-08T12:02:50;98321.09;;;29.52;27.38
34566;BME280;20803;42.676;26.348;2023-10-08T12:05:20;98321.16;;;29.59;27.10
34566;BME280;20803;42.676;26.348;2023-10-08T12:07:50;98315.13;;;29.63;27.12
34566;BME280;20803;42.676;26.348;2023-10-08T12:10:23;98313.88;;;29.58;27.25
34566;BME280;20803;42.676;26.348;2023-10-08T12:15:14;98297.59;;;29.40;27.31
34566;BME280;20803;42.676;26.348;2023-10-08T12:17:48;98294.66;;;29.46;26.93
34566;BME280;20803;42.676;26.348;2023-10-08T12:20:32;98293.63;;;29.30;26.76
34566;BME280;20803;42.676;26.348;2023-10-08T12:22:59;98297.50;;;29.19;26.96
34566;BME280;20803;42.676;26.348;2023-10-08T12:25:25;98302.56;;;29.13;27.17
34566;BME280;20803;42.676;26.348;2023-10-08T12:27:50;98292.31;;;29.18;26.99
34566;BME280;20803;42.676;26.348;2023-10-08T12:30:16;98295.72;;;29.16;26.87
34566;BME280;20803;42.676;26.348;2023-10-08T12:32:41;98294.09;;;29.21;26.55
34566;BME280;20803;42.676;26.348;2023-10-08T12:35:10;98301.69;;;29.31;26.93
34566;BME280;20803;42.676;26.348;2023-10-08T12:37:40;98293.13;;;29.44;26.65
34566;BME280;20803;42.676;26.348;2023-10-08T12:40:09;98286.03;;;29.32;26.66
34566;BME280;20803;42.676;26.348;2023-10-08T12:42:53;98280.09;;;29.30;26.75
34566;BME280;20803;42.676;26.348;2023-10-08T12:45:20;98289.59;;;29.38;26.54
34566;BME280;20803;42.676;26.348;2023-10-08T12:47:49;98293.31;;;29.47;27.10
34566;BME280;20803;42.676;26.348;2023-10-08T12:50:21;98298.59;;;29.56;27.23
34566;BME280;20803;42.676;26.348;2023-10-08T12:53:10;98290.06;;;29.76;26.83
34566;BME280;20803;42.676;26.348;2023-10-08T12:55:40;98295.59;;;29.74;26.85
34566;BME280;20803;42.676;26.348;2023-10-08T12:58:08;98292.19;;;29.76;27.00
34566;BME280;20803;42.676;26.348;2023-10-08T13:00:39;98294.06;;;29.60;26.87
34566;BME280;20803;42.676;26.348;2023-10-08T13:03:07;98290.97;;;29.58;27.27
34566;BME280;20803;42.676;26.348;2023-10-08T13:05:43;98283.09;;;29.51;27.16
34566;BME280;20803;42.676;26.348;2023-10-08T13:08:12;98287.81;;;29.35;27.23
34566;BME280;20803;42.676;26.348;2023-10-08T13:10:39;98288.81;;;29.51;27.32
34566;BME280;20803;42.676;26.348;2023-10-08T13:13:11;98281.09;;;29.46;27.07
34566;BME280;20803;42.676;26.348;2023-10-08T13:15:40;98284.00;;;29.33;27.45
34566;BME280;20803;42.676;26.348;2023-10-08T13:18:09;98292.97;;;29.11;27.72